createdAt,value
2018-04-22T00:00:27.004Z,24.47
2018-04-22T00:02:54.145Z,22.87
2018-04-22T00:05:20.494Z,27.80
2018-04-22T00:07:46.808Z,25.23
2018-04-22T00:10:13.125Z,25.00
2018-04-22T00:12:40.142Z,26.60
2018-04-22T00:15:06.450Z,26.10
2018-04-22T00:17:32.761Z,26.83
2018-04-22T00:19:59.829Z,28.67
2018-04-22T00:22:26.841Z,28.20
2018-04-22T00:24:53.144Z,27.13
2018-04-22T00:27:19.425Z,26.53
2018-04-22T00:29:45.801Z,29.47
2018-04-22T00:32:12.834Z,25.80
2018-04-22T00:34:39.761Z,23.33
2018-04-22T00:37:06.064Z,27.00
2018-04-22T00:39:33.076Z,28.60
2018-04-22T00:41:59.399Z,27.10
2018-04-22T00:44:25.713Z,25.13
2018-04-22T00:46:52.789Z,23.10
2018-04-22T00:49:19.064Z,26.87
2018-04-22T00:51:45.397Z,24.60
2018-04-22T00:54:19.590Z,23.97
2018-04-22T00:56:45.882Z,23.20
2018-04-22T00:59:12.237Z,24.57
2018-04-22T01:01:38.563Z,26.80
2018-04-22T01:04:04.906Z,28.77
2018-04-22T01:06:31.211Z,29.50
2018-04-22T01:08:58.259Z,28.27
2018-04-22T01:11:24.543Z,29.67
2018-04-22T01:13:50.861Z,27.83
2018-04-22T01:16:17.918Z,28.03
2018-04-22T01:18:44.984Z,27.00
2018-04-22T01:21:11.257Z,29.93
2018-04-22T01:23:37.527Z,30.80
2018-04-22T01:26:03.856Z,28.57
2018-04-22T01:28:30.190Z,30.60
2018-04-22T01:30:56.470Z,28.50
2018-04-22T01:33:23.571Z,25.37
2018-04-22T01:35:49.875Z,25.93
2018-04-22T01:38:16.244Z,24.73
2018-04-22T01:40:43.333Z,27.43
2018-04-22T01:43:09.673Z,26.73
2018-04-22T01:45:35.938Z,25.77
2018-04-22T01:48:02.300Z,23.63
2018-04-22T01:50:28.609Z,21.17
2018-04-22T01:52:54.921Z,27.67
2018-04-22T01:55:21.909Z,28.00
2018-04-22T01:57:48.251Z,29.33
2018-04-22T02:00:14.614Z,25.87
2018-04-22T02:02:40.856Z,29.43
2018-04-22T02:05:07.215Z,29.00
2018-04-22T02:07:33.520Z,28.13
2018-04-22T02:09:59.819Z,29.47
2018-04-22T02:12:26.125Z,27.70
2018-04-22T02:14:52.392Z,25.63
2018-04-22T02:17:19.743Z,25.83
2018-04-22T02:19:46.052Z,26.80
2018-04-22T02:22:12.496Z,24.93
2018-04-22T02:24:38.848Z,27.33
2018-04-22T02:27:05.139Z,26.57
2018-04-22T02:29:31.394Z,26.83
2018-04-22T02:31:58.396Z,25.27
2018-04-22T02:34:24.817Z,26.03
2018-04-22T02:36:51.185Z,27.53
2018-04-22T02:39:17.484Z,27.47
2018-04-22T02:41:43.850Z,27.40
2018-04-22T02:44:10.263Z,84.27
2018-04-22T02:46:36.525Z,28.10
2018-04-22T02:49:03.562Z,25.63
2018-04-22T02:51:29.978Z,24.83
2018-04-22T02:53:56.267Z,25.80
2018-04-22T02:56:22.643Z,26.23
2018-04-22T02:58:49.005Z,23.60
2018-04-22T03:01:15.319Z,24.23
2018-04-22T03:03:41.651Z,26.47
2018-04-22T03:06:08.024Z,26.07
2018-04-22T03:08:34.310Z,25.23
2018-04-22T03:11:01.450Z,26.67
2018-04-22T03:13:27.785Z,25.90
2018-04-22T03:15:54.118Z,24.20
2018-04-22T03:18:20.486Z,26.93
2018-04-22T03:20:46.756Z,25.60
2018-04-22T03:23:13.815Z,25.60
2018-04-22T03:25:40.876Z,26.00
2018-04-22T03:28:07.953Z,26.13
2018-04-22T03:30:34.378Z,26.03
2018-04-22T03:33:01.474Z,28.53
2018-04-22T03:35:27.790Z,25.13
2018-04-22T03:37:54.854Z,26.00
2018-04-22T03:40:21.317Z,25.20
2018-04-22T03:42:47.626Z,28.70
2018-04-22T03:45:14.719Z,25.77
2018-04-22T03:47:41.098Z,28.57
2018-04-22T03:50:07.431Z,26.07
2018-04-22T03:52:33.743Z,24.80
2018-04-22T03:55:00.105Z,26.17
2018-04-22T03:57:26.419Z,26.87
2018-04-22T03:59:53.421Z,26.33
2018-04-22T04:02:19.776Z,26.40
2018-04-22T04:04:46.081Z,25.80
2018-04-22T04:07:12.506Z,27.17
2018-04-22T04:09:39.600Z,27.47
2018-04-22T04:12:05.982Z,28.63
2018-04-22T04:14:32.300Z,29.30
2018-04-22T04:16:58.654Z,25.70
2018-04-22T04:19:37.192Z,29.23
2018-04-22T04:22:15.756Z,26.27
2018-04-22T04:24:55.973Z,23.90
2018-04-22T04:30:30.033Z,25.33
2018-04-22T04:32:56.361Z,27.27
2018-04-22T04:35:22.777Z,25.00
2018-04-22T04:37:49.834Z,25.17
2018-04-22T04:40:16.042Z,23.23
2018-04-22T04:42:42.241Z,23.53
2018-04-22T04:45:08.432Z,24.20
2018-04-22T04:47:34.653Z,25.07
2018-04-22T04:50:00.878Z,23.37
2018-04-22T04:52:27.065Z,24.83
2018-04-22T04:54:53.359Z,25.20
2018-04-22T04:57:19.550Z,26.33
2018-04-22T04:59:45.797Z,24.87
2018-04-22T05:02:12.156Z,21.20
2018-04-22T05:04:39.090Z,25.23
2018-04-22T05:07:05.277Z,23.00
2018-04-22T05:09:31.480Z,27.33
2018-04-22T05:11:57.680Z,24.00
2018-04-22T05:14:24.055Z,25.63
2018-04-22T05:16:50.108Z,22.80
2018-04-22T05:19:16.410Z,26.73
2018-04-22T05:21:42.672Z,24.90
2018-04-22T05:24:08.859Z,22.90
2018-04-22T05:26:35.111Z,24.33
2018-04-22T05:29:01.348Z,27.33
2018-04-22T05:31:27.562Z,22.80
2018-04-22T05:33:54.572Z,26.17
2018-04-22T05:36:20.875Z,25.70
2018-04-22T05:38:47.863Z,25.43
2018-04-22T05:41:14.100Z,22.20
2018-04-22T05:43:40.296Z,21.13
2018-04-22T05:46:07.246Z,23.77
2018-04-22T05:48:33.504Z,21.40
2018-04-22T05:51:00.539Z,22.83
2018-04-22T05:53:26.707Z,21.43
2018-04-22T05:55:53.730Z,23.27
2018-04-22T05:58:19.963Z,18.97
2018-04-22T06:00:46.200Z,23.23
2018-04-22T06:03:12.442Z,22.47
2018-04-22T06:05:38.650Z,19.70
2018-04-22T06:08:04.965Z,18.80
2018-04-22T06:10:31.160Z,18.47
2018-04-22T06:12:57.334Z,19.03
2018-04-22T06:15:23.567Z,21.87
2018-04-22T06:17:49.753Z,20.73
2018-04-22T06:20:15.982Z,18.37
2018-04-22T06:22:42.243Z,18.27
2018-04-22T06:25:08.466Z,15.83
2018-04-22T06:27:34.766Z,14.87
2018-04-22T06:30:00.991Z,13.83
2018-04-22T06:32:27.193Z,14.07
2018-04-22T06:34:53.408Z,12.63
2018-04-22T06:37:20.352Z,11.93
2018-04-22T06:39:46.705Z,16.40
2018-04-22T06:42:13.719Z,15.30
2018-04-22T06:44:39.892Z,14.27
2018-04-22T06:47:06.110Z,16.17
2018-04-22T06:49:32.299Z,17.50
2018-04-22T06:51:58.525Z,16.47
2018-04-22T06:54:25.529Z,16.67
2018-04-22T06:56:51.788Z,15.30
2018-04-22T06:59:18.003Z,15.70
2018-04-22T07:01:44.204Z,19.67
2018-04-22T07:04:11.187Z,18.67
2018-04-22T07:06:37.395Z,16.97
2018-04-22T07:09:04.571Z,18.70
2018-04-22T07:11:31.509Z,18.20
2018-04-22T07:13:58.469Z,19.30
2018-04-22T07:16:24.707Z,18.47
2018-04-22T07:18:50.902Z,16.77
2018-04-22T07:21:17.077Z,18.97
2018-04-22T07:23:43.272Z,16.67
2018-04-22T07:26:09.453Z,18.23
2018-04-22T07:28:35.671Z,18.83
2018-04-22T07:31:01.879Z,20.03
2018-04-22T07:33:28.116Z,18.33
2018-04-22T07:35:55.080Z,17.80
2018-04-22T07:38:21.258Z,17.73
2018-04-22T07:40:47.487Z,16.87
2018-04-22T07:43:13.835Z,15.83
2018-04-22T07:45:40.087Z,18.40
2018-04-22T07:48:06.417Z,16.30
2018-04-22T07:50:32.706Z,18.40
2018-04-22T07:52:59.799Z,17.50
2018-04-22T07:55:26.171Z,16.23
2018-04-22T07:57:52.464Z,16.77
2018-04-22T08:00:19.519Z,16.13
2018-04-22T08:02:46.619Z,15.20
2018-04-22T08:05:12.966Z,13.93
2018-04-22T08:07:39.274Z,15.60
2018-04-22T08:10:06.441Z,15.90
2018-04-22T08:12:32.783Z,14.57
2018-04-22T08:14:59.831Z,15.20
2018-04-22T08:17:26.879Z,16.13
2018-04-22T08:19:53.181Z,16.30
2018-04-22T08:22:19.638Z,15.80
2018-04-22T08:24:45.975Z,15.70
2018-04-22T08:27:12.333Z,15.47
2018-04-22T08:29:38.647Z,16.13
2018-04-22T08:32:04.959Z,14.80
2018-04-22T08:34:32.086Z,15.60
2018-04-22T08:36:58.387Z,15.60
2018-04-22T08:39:25.678Z,12.87
2018-04-22T08:41:52.723Z,13.73
2018-04-22T08:44:19.034Z,13.03
2018-04-22T08:46:45.382Z,13.60
2018-04-22T08:49:11.737Z,12.93
2018-04-22T08:51:38.157Z,15.37
2018-04-22T08:54:04.513Z,11.83
2018-04-22T08:56:31.657Z,12.00
2018-04-22T08:58:58.026Z,12.47
2018-04-22T09:01:24.319Z,11.07
2018-04-22T09:03:50.633Z,11.37
2018-04-22T09:06:16.965Z,11.30
2018-04-22T09:08:43.329Z,11.20
2018-04-22T09:11:09.672Z,10.00
2018-04-22T09:13:36.202Z,9.77
2018-04-22T09:16:02.534Z,9.80
2018-04-22T09:18:28.895Z,11.27
2018-04-22T09:20:55.298Z,8.90
2018-04-22T09:23:21.762Z,10.40
2018-04-22T09:25:48.106Z,10.97
2018-04-22T09:28:14.443Z,8.73
2018-04-22T09:30:40.756Z,10.00
2018-04-22T09:33:07.101Z,8.20
2018-04-22T09:35:33.453Z,8.60
2018-04-22T09:37:59.826Z,9.47
2018-04-22T09:40:26.183Z,9.63
2018-04-22T09:42:52.480Z,8.40
2018-04-22T09:45:18.857Z,8.57
2018-04-22T09:47:45.200Z,8.87
2018-04-22T09:50:11.524Z,8.70
2018-04-22T09:52:38.585Z,9.63
2018-04-22T09:55:04.866Z,9.00
2018-04-22T09:57:31.196Z,8.53
2018-04-22T09:59:57.548Z,8.37
2018-04-22T10:02:29.846Z,9.03
2018-04-22T10:04:56.242Z,8.23
2018-04-22T10:07:22.564Z,9.03
2018-04-22T10:09:48.913Z,7.07
2018-04-22T10:12:15.237Z,7.60
2018-04-22T10:14:41.630Z,8.00
2018-04-22T10:17:07.951Z,7.90
2018-04-22T10:19:34.229Z,6.80
2018-04-22T10:22:00.642Z,7.07
2018-04-22T10:24:27.648Z,8.00
2018-04-22T10:26:53.926Z,7.30
2018-04-22T10:29:20.252Z,6.57
2018-04-22T10:31:46.926Z,7.10
2018-04-22T10:34:14.065Z,6.50
2018-04-22T10:36:40.373Z,6.63
2018-04-22T10:39:06.683Z,6.60
2018-04-22T10:41:33.769Z,6.13
2018-04-22T10:44:00.107Z,7.30
2018-04-22T10:46:26.440Z,6.70
2018-04-22T10:48:53.477Z,6.10
2018-04-22T10:51:19.803Z,5.70
2018-04-22T10:53:46.142Z,6.30
2018-04-22T10:56:12.442Z,6.20
2018-04-22T10:58:38.764Z,6.30
2018-04-22T11:01:05.749Z,5.37
2018-04-22T11:03:32.021Z,6.37
2018-04-22T11:05:58.340Z,5.90
2018-04-22T11:08:24.632Z,6.33
2018-04-22T11:10:50.926Z,6.77
2018-04-22T11:13:17.159Z,5.90
2018-04-22T11:15:43.479Z,6.40
2018-04-22T11:18:10.664Z,6.40
2018-04-22T11:20:37.038Z,5.97
2018-04-22T11:23:03.378Z,5.63
2018-04-22T11:25:29.711Z,5.27
2018-04-22T11:27:58.122Z,5.73
2018-04-22T11:30:24.599Z,5.37
2018-04-22T11:32:50.903Z,5.73
2018-04-22T11:35:17.211Z,6.37
2018-04-22T11:37:43.525Z,5.97
2018-04-22T11:40:09.865Z,5.13
2018-04-22T11:42:36.223Z,5.00
2018-04-22T11:45:03.340Z,6.00
2018-04-22T11:47:29.655Z,5.90
2018-04-22T11:49:55.979Z,5.90
2018-04-22T11:52:23.038Z,6.07
2018-04-22T11:54:50.083Z,5.57
2018-04-22T11:57:16.404Z,5.77
2018-04-22T11:59:42.705Z,6.10
2018-04-22T12:02:09.044Z,5.20
2018-04-22T12:04:35.385Z,5.33
2018-04-22T12:07:01.727Z,5.10
2018-04-22T12:09:28.033Z,4.73
2018-04-22T12:11:54.386Z,4.93
2018-04-22T12:14:20.752Z,5.43
2018-04-22T12:16:47.870Z,5.40
2018-04-22T12:19:14.193Z,5.37
2018-04-22T12:21:40.507Z,5.30
2018-04-22T12:24:06.842Z,4.97
2018-04-22T12:26:33.171Z,5.00
2018-04-22T12:29:00.173Z,5.00
2018-04-22T12:31:26.497Z,4.53
2018-04-22T12:33:52.816Z,5.33
2018-04-22T12:36:19.941Z,5.27
2018-04-22T12:38:46.254Z,5.23
2018-04-22T12:41:12.535Z,4.97
2018-04-22T12:43:38.868Z,5.83
2018-04-22T12:46:05.215Z,5.10
2018-04-22T12:48:31.631Z,4.57
2018-04-22T12:50:57.978Z,4.70
2018-04-22T12:53:24.366Z,5.17
2018-04-22T12:55:50.680Z,4.80
2018-04-22T12:58:16.976Z,5.07
2018-04-22T13:00:43.306Z,5.10
2018-04-22T13:03:10.462Z,4.87
2018-04-22T13:05:36.822Z,4.97
2018-04-22T13:08:03.926Z,4.30
2018-04-22T13:10:30.281Z,4.03
2018-04-22T13:12:56.644Z,4.60
2018-04-22T13:15:22.950Z,4.40
2018-04-22T13:17:49.302Z,4.50
2018-04-22T13:20:15.675Z,4.50
2018-04-22T13:22:41.991Z,4.23
2018-04-22T13:25:08.295Z,4.30
2018-04-22T13:27:35.309Z,4.20
2018-04-22T13:30:01.595Z,4.63
2018-04-22T13:32:27.986Z,3.80
2018-04-22T13:34:54.271Z,5.27
2018-04-22T13:37:20.592Z,4.37
2018-04-22T13:39:46.910Z,4.07
2018-04-22T13:42:13.295Z,4.50
2018-04-22T13:44:40.424Z,4.63
2018-04-22T13:47:06.855Z,4.40
2018-04-22T13:49:33.259Z,4.20
2018-04-22T13:52:00.427Z,4.00
2018-04-22T13:54:26.831Z,4.27
2018-04-22T13:56:53.210Z,4.67
2018-04-22T13:59:20.307Z,4.30
2018-04-22T14:01:46.632Z,4.27
2018-04-22T14:04:13.007Z,4.33
2018-04-22T14:06:39.343Z,4.60
2018-04-22T14:09:05.667Z,4.33
2018-04-22T14:11:31.974Z,4.20
2018-04-22T14:13:58.263Z,4.27
2018-04-22T14:16:24.637Z,3.87
2018-04-22T14:18:50.974Z,3.83
2018-04-22T14:21:17.381Z,3.60
2018-04-22T14:23:45.447Z,4.00
2018-04-22T14:26:11.911Z,5.43
2018-04-22T14:28:38.286Z,4.00
2018-04-22T14:31:05.394Z,3.97
2018-04-22T14:33:32.469Z,4.10
2018-04-22T14:35:58.781Z,4.30
2018-04-22T14:38:25.189Z,5.10
2018-04-22T14:40:51.560Z,4.40
2018-04-22T14:43:17.965Z,5.17
2018-04-22T14:46:00.229Z,5.10
2018-04-22T14:48:27.495Z,5.20
2018-04-22T14:50:53.830Z,4.90
2018-04-22T14:53:20.123Z,5.07
2018-04-22T14:55:46.463Z,6.40
2018-04-22T14:58:13.238Z,6.27
2018-04-22T15:00:39.513Z,6.37
2018-04-22T15:03:05.837Z,4.93
2018-04-22T15:05:32.126Z,5.67
2018-04-22T15:07:59.175Z,6.30
2018-04-22T15:10:26.311Z,4.80
2018-04-22T15:12:52.702Z,4.10
2018-04-22T15:15:19.122Z,5.00
2018-04-22T15:17:45.426Z,6.43
2018-04-22T15:20:11.802Z,6.47
2018-04-22T15:22:38.157Z,5.70
2018-04-22T15:25:04.530Z,6.73
2018-04-22T15:27:30.883Z,5.07
2018-04-22T15:29:57.215Z,5.40
2018-04-22T15:32:23.585Z,4.83
2018-04-22T15:34:49.884Z,5.70
2018-04-22T15:37:17.009Z,5.13
2018-04-22T15:39:43.340Z,5.00
2018-04-22T15:42:09.682Z,5.63
2018-04-22T15:44:36.114Z,7.53
2018-04-22T15:47:02.503Z,5.37
2018-04-22T15:49:28.896Z,5.70
2018-04-22T15:51:55.262Z,6.43
2018-04-22T15:54:21.781Z,5.00
2018-04-22T15:56:48.115Z,8.70
2018-04-22T15:59:14.452Z,6.07
2018-04-22T16:01:42.491Z,6.37
2018-04-22T16:04:08.861Z,5.97
2018-04-22T16:06:35.214Z,5.03
2018-04-22T16:09:01.551Z,5.20
2018-04-22T16:11:27.980Z,5.47
2018-04-22T16:13:54.316Z,6.40
2018-04-22T16:16:20.772Z,5.20
2018-04-22T16:18:47.228Z,4.73
2018-04-22T16:21:13.611Z,5.30
2018-04-22T16:23:39.942Z,4.67
2018-04-22T16:26:07.016Z,4.63
2018-04-22T16:28:33.433Z,5.07
2018-04-22T16:31:00.484Z,4.77
2018-04-22T16:33:26.831Z,5.17
2018-04-22T16:35:53.956Z,5.53
2018-04-22T16:38:20.287Z,5.53
2018-04-22T16:40:46.663Z,4.80
2018-04-22T16:43:13.067Z,6.13
2018-04-22T16:45:39.412Z,4.83
2018-04-22T16:48:05.772Z,4.70
2018-04-22T16:50:32.086Z,5.00
2018-04-22T16:52:58.468Z,4.90
2018-04-22T16:55:35.028Z,4.93
2018-04-22T16:58:01.492Z,4.77
2018-04-22T17:00:27.837Z,4.70
2018-04-22T17:02:54.323Z,5.53
2018-04-22T17:05:20.698Z,4.40
2018-04-22T17:07:47.743Z,4.80
2018-04-22T17:10:14.811Z,4.67
2018-04-22T17:12:41.145Z,5.40
2018-04-22T17:15:08.214Z,5.47
2018-04-22T17:17:34.552Z,5.10
2018-04-22T17:20:01.664Z,5.50
2018-04-22T17:22:28.064Z,5.47
2018-04-22T17:24:54.378Z,4.60
2018-04-22T17:27:20.731Z,5.20
2018-04-22T17:29:47.859Z,4.80
2018-04-22T17:32:14.209Z,4.40
2018-04-22T17:34:47.637Z,4.40
2018-04-22T17:37:13.974Z,4.70
2018-04-22T17:39:41.149Z,5.97
2018-04-22T17:42:07.485Z,5.60
2018-04-22T17:44:33.854Z,4.63
2018-04-22T17:47:00.171Z,4.13
2018-04-22T17:49:26.564Z,4.70
2018-04-22T17:51:52.911Z,4.70
2018-04-22T17:54:19.978Z,4.03
2018-04-22T17:56:47.404Z,5.47
2018-04-22T17:59:14.488Z,4.57
2018-04-22T18:01:40.981Z,4.87
2018-04-22T18:04:07.266Z,4.27
2018-04-22T18:06:34.383Z,4.80
2018-04-22T18:09:00.747Z,4.50
2018-04-22T18:11:27.080Z,6.50
2018-04-22T18:13:53.374Z,8.03
2018-04-22T18:16:19.768Z,6.43
2018-04-22T18:18:46.960Z,5.80
2018-04-22T18:21:14.221Z,5.67
2018-04-22T18:23:41.262Z,5.43
2018-04-22T18:26:07.602Z,7.13
2018-04-22T18:28:34.041Z,7.30
2018-04-22T18:31:00.438Z,7.23
2018-04-22T18:33:26.693Z,12.60
2018-04-22T18:35:52.993Z,12.07
2018-04-22T18:38:20.005Z,8.93
2018-04-22T18:40:46.331Z,8.03
2018-04-22T18:43:12.749Z,6.63
2018-04-22T18:45:39.905Z,6.30
2018-04-22T18:48:06.998Z,5.93
2018-04-22T18:50:33.302Z,6.17
2018-04-22T18:53:00.404Z,5.90
2018-04-22T18:55:26.725Z,6.17
2018-04-22T18:57:53.031Z,7.57
2018-04-22T19:00:20.108Z,7.97
2018-04-22T19:02:46.404Z,11.17
2018-04-22T19:05:12.819Z,9.00
2018-04-22T19:07:39.889Z,9.17
2018-04-22T19:10:06.186Z,9.40
2018-04-22T19:12:32.465Z,8.40
2018-04-22T19:14:58.857Z,8.77
2018-04-22T19:17:25.155Z,8.40
2018-04-22T19:19:51.569Z,8.30
2018-04-22T19:22:18.653Z,7.70
2018-04-22T19:24:44.978Z,8.80
2018-04-22T19:30:05.229Z,8.20
2018-04-22T19:32:33.588Z,7.23
2018-04-22T19:35:00.141Z,7.90
2018-04-22T19:37:26.486Z,6.93
2018-04-22T19:39:52.825Z,7.80
2018-04-22T19:42:19.166Z,9.10
2018-04-22T19:44:46.240Z,8.67
2018-04-22T19:47:12.678Z,8.93
2018-04-22T19:49:39.939Z,8.87
2018-04-22T19:52:06.355Z,7.73
2018-04-22T19:54:33.901Z,8.17
2018-04-22T19:57:00.256Z,7.00
2018-04-22T19:59:26.796Z,7.27
2018-04-22T20:01:53.145Z,7.27
2018-04-22T20:04:19.471Z,7.43
2018-04-22T20:06:45.831Z,6.90
2018-04-22T20:09:12.177Z,6.90
2018-04-22T20:11:39.286Z,7.03
2018-04-22T20:14:05.643Z,6.90
2018-04-22T20:16:32.706Z,7.50
2018-04-22T20:18:59.754Z,6.33
2018-04-22T20:21:26.066Z,8.10
2018-04-22T20:23:52.444Z,7.97
2018-04-22T20:26:18.810Z,7.57
2018-04-22T20:28:45.912Z,7.40
2018-04-22T20:31:12.214Z,7.83
2018-04-22T20:33:38.664Z,6.97
2018-04-22T20:36:05.724Z,7.30
2018-04-22T20:38:32.846Z,7.40
2018-04-22T20:40:59.940Z,7.43
2018-04-22T20:43:27.024Z,8.10
2018-04-22T20:45:53.455Z,7.53
2018-04-22T20:48:20.571Z,6.70
2018-04-22T20:50:46.913Z,7.27
2018-04-22T20:53:13.289Z,8.23
2018-04-22T20:55:40.415Z,6.77
2018-04-22T20:58:06.794Z,6.70
2018-04-22T21:00:33.843Z,7.20
2018-04-22T21:03:01.725Z,7.67
2018-04-22T21:05:28.045Z,6.60
2018-04-22T21:07:54.363Z,7.57
2018-04-22T21:10:20.725Z,7.50
2018-04-22T21:12:47.021Z,9.00
2018-04-22T21:15:14.141Z,7.53
2018-04-22T21:17:40.487Z,7.63
2018-04-22T21:20:06.803Z,6.87
2018-04-22T21:22:33.090Z,7.77
2018-04-22T21:24:59.469Z,6.83
2018-04-22T21:27:25.729Z,7.90
2018-04-22T21:29:52.316Z,6.83
2018-04-22T21:32:18.628Z,8.30
2018-04-22T21:34:44.951Z,9.00
2018-04-22T21:37:11.362Z,7.30
2018-04-22T21:39:38.470Z,7.43
2018-04-22T21:42:04.763Z,8.87
2018-04-22T21:44:31.826Z,8.33
2018-04-22T21:46:58.119Z,7.00
2018-04-22T21:49:24.488Z,7.93
2018-04-22T21:51:52.850Z,7.30
2018-04-22T21:54:19.158Z,7.23
2018-04-22T21:56:46.197Z,7.97
2018-04-22T21:59:12.541Z,7.20
2018-04-22T22:01:38.884Z,6.60
2018-04-22T22:04:08.416Z,7.30
2018-04-22T22:06:34.691Z,6.90
2018-04-22T22:09:01.094Z,7.47
2018-04-22T22:11:28.185Z,7.20
2018-04-22T22:13:54.451Z,7.67
2018-04-22T22:16:20.813Z,9.87
2018-04-22T22:18:47.119Z,7.20
2018-04-22T22:21:13.426Z,7.40
2018-04-22T22:23:39.752Z,7.67
2018-04-22T22:26:06.099Z,8.10
2018-04-22T22:28:32.444Z,7.47
2018-04-22T22:30:58.745Z,9.17
2018-04-22T22:33:39.941Z,7.00
2018-04-22T22:36:06.263Z,9.00
2018-04-22T22:38:32.601Z,8.53
2018-04-22T22:40:58.998Z,7.60
2018-04-22T22:43:26.077Z,7.97
2018-04-22T22:45:52.412Z,7.43
2018-04-22T22:48:18.838Z,7.00
2018-04-22T22:50:45.185Z,7.30
2018-04-22T22:53:11.917Z,6.97
2018-04-22T22:55:40.258Z,8.20
2018-04-22T22:58:06.663Z,7.03
2018-04-22T23:00:32.944Z,7.13
2018-04-22T23:03:00.029Z,7.57
2018-04-22T23:05:27.081Z,7.50
2018-04-22T23:07:57.384Z,7.30
2018-04-22T23:10:23.705Z,8.53
2018-04-22T23:12:50.990Z,7.70
2018-04-22T23:15:17.330Z,7.63
2018-04-22T23:17:43.721Z,8.33
2018-04-22T23:20:10.014Z,8.00
2018-04-22T23:22:36.300Z,8.43
2018-04-22T23:25:03.297Z,8.53
2018-04-22T23:27:29.636Z,8.27
2018-04-22T23:29:55.940Z,8.40
2018-04-22T23:32:23.023Z,8.67
2018-04-22T23:34:49.351Z,8.67
2018-04-22T23:37:16.411Z,8.77
2018-04-22T23:39:42.666Z,8.43
2018-04-22T23:42:08.978Z,8.43
2018-04-22T23:44:36.074Z,7.20
2018-04-22T23:47:05.931Z,7.93
2018-04-22T23:49:32.322Z,6.53
2018-04-22T23:51:59.388Z,7.50
2018-04-22T23:54:26.371Z,7.20
2018-04-22T23:56:52.692Z,7.00
2018-04-22T23:59:19.023Z,6.97
